Time;durP1;ratioP1;P1;durP2;ratioP2;P2;SDS_P1;SDS_P2;PMS_P1;PMS_P2;Temp;Humidity;BMP_temperature;BMP_pressure;BME280_temperature;BME280_humidity;BME280_pressure;Samples;Min_cycle;Max_cycle;Signal;HPM_P1;HPM_P2
2023/06/17 00:03:20;;;;;;;7.85;4.13;;;;;;;17.95;56.93;100998.81;10261305;29;20068;-80
2023/06/17 00:08:22;;;;;;;7.90;3.88;;;;;;;17.87;57.86;100998.78;10284264;28;20150;-80
2023/06/17 00:13:26;;;;;;;8.18;4.50;;;;;;;17.77;58.72;100997.13;10271461;29;20043;-80
2023/06/17 00:18:28;;;;;;;6.47;4.03;;;;;;;17.61;59.37;100991.16;10270988;28;20043;-82
2023/06/17 00:23:30;;;;;;;9.55;4.05;;;;;;;17.60;59.16;100986.75;10280322;28;20423;-81
2023/06/17 00:28:33;;;;;;;9.57;4.30;;;;;;;17.53;59.49;100991.94;10270006;29;20039;-79
2023/06/17 00:33:35;;;;;;;6.85;4.25;;;;;;;17.49;59.50;100985.38;10280430;28;20418;-81
2023/06/17 00:38:37;;;;;;;10.90;4.78;;;;;;;17.41;59.47;100988.94;10263566;28;20055;-81
2023/06/17 00:43:39;;;;;;;5.75;3.45;;;;;;;17.41;58.75;100983.38;10286280;29;20053;-81
2023/06/17 00:48:43;;;;;;;9.73;4.03;;;;;;;17.51;57.70;100991.41;10285679;29;20055;-81
2023/06/17 00:53:45;;;;;;;8.38;4.18;;;;;;;17.47;57.46;101001.53;10301760;28;20047;-77
2023/06/17 00:58:47;;;;;;;8.57;4.45;;;;;;;17.48;57.26;101000.38;10285554;29;20043;-78
2023/06/17 01:03:51;;;;;;;6.18;3.55;;;;;;;17.50;56.35;101003.66;10286424;28;20422;-79
2023/06/17 01:09:02;;;;;;;7.65;4.40;;;;;;;17.47;56.15;100991.25;10285832;29;20079;-77
2023/06/17 01:14:05;;;;;;;9.55;4.18;;;;;;;17.52;56.01;101001.38;10301670;28;20055;-77
2023/06/17 01:19:18;;;;;;;9.65;4.07;;;;;;;17.56;55.65;100999.63;10283783;29;20693;-77
2023/06/17 01:24:30;;;;;;;8.13;4.38;;;;;;;17.60;55.67;101003.41;10284379;29;20048;-78
2023/06/17 01:29:32;;;;;;;8.27;3.92;;;;;;;17.56;55.21;101001.59;10284390;29;20043;-79
2023/06/17 01:34:43;;;;;;;8.98;4.90;;;;;;;17.55;54.91;100995.22;10287132;29;20132;-75
2023/06/17 01:39:48;;;;;;;10.13;4.18;;;;;;;17.54;55.37;101001.09;10283723;29;20494;-74
2023/06/17 01:44:50;;;;;;;13.43;5.60;;;;;;;17.61;54.49;100998.66;10274690;29;20059;-74
2023/06/17 01:49:59;;;;;;;7.88;4.00;;;;;;;17.54;54.64;100993.59;10254461;29;20395;-75
2023/06/17 01:55:01;;;;;;;7.97;4.28;;;;;;;17.61;54.27;101007.81;10286439;28;20058;-74
2023/06/17 02:00:05;;;;;;;9.27;4.15;;;;;;;17.86;53.42;100999.94;10283978;29;20043;-75
2023/06/17 02:05:08;;;;;;;7.28;3.58;;;;;;;18.02;53.03;101001.13;10284579;29;20054;-74
2023/06/17 02:10:10;;;;;;;6.50;4.13;;;;;;;18.20;52.09;101007.53;10282436;29;20058;-74
2023/06/17 02:15:13;;;;;;;9.65;4.85;;;;;;;18.38;51.76;101017.53;10285518;28;20057;-74
2023/06/17 02:20:15;;;;;;;8.60;3.80;;;;;;;18.70;51.74;101010.75;10282388;29;20051;-74
2023/06/17 02:25:17;;;;;;;9.93;4.28;;;;;;;18.96;51.27;101016.31;10283367;28;20043;-74
2023/06/17 02:30:20;;;;;;;8.65;4.25;;;;;;;19.23;50.71;101017.91;10285931;28;20139;-75
2023/06/17 02:35:22;;;;;;;12.43;4.50;;;;;;;19.35;50.48;101020.00;10282128;29;20039;-74
2023/06/17 02:40:24;;;;;;;11.60;5.32;;;;;;;19.42;51.49;101015.56;10282062;29;20055;-74
2023/06/17 02:45:27;;;;;;;12.82;5.05;;;;;;;19.38;50.84;101011.81;10273728;29;20168;-75
2023/06/17 02:50:30;;;;;;;11.88;5.05;;;;;;;19.72;49.88;101013.69;10274613;29;20062;-75
2023/06/17 02:55:32;;;;;;;13.65;5.93;;;;;;;19.84;49.54;101008.25;10260500;29;20035;-74
2023/06/17 03:00:43;;;;;;;11.63;4.70;;;;;;;19.74;50.72;101016.13;10275546;28;20047;-74
2023/06/17 03:05:46;;;;;;;10.27;5.28;;;;;;;19.49;50.95;101017.84;10278468;29;20046;-75
2023/06/17 03:10:48;;;;;;;14.63;5.68;;;;;;;19.61;49.88;101022.72;10278342;29;20043;-75
2023/06/17 03:15:51;;;;;;;12.52;4.72;;;;;;;19.54;50.30;101014.91;10278946;29;20047;-74
2023/06/17 03:20:55;;;;;;;10.65;5.45;;;;;;;19.61;49.10;101011.59;10279943;29;20222;-74
2023/06/17 03:25:59;;;;;;;13.32;4.97;;;;;;;19.57;49.63;101003.09;10276036;29;20050;-75
2023/06/17 03:31:02;;;;;;;11.95;4.53;;;;;;;19.85;48.91;101011.84;10277944;29;20045;-75
2023/06/17 03:36:06;;;;;;;6.93;4.25;;;;;;;19.94;48.83;101009.81;10265286;28;20054;-74
2023/06/17 03:41:08;;;;;;;11.52;3.97;;;;;;;20.43;47.85;101013.00;10278859;29;20505;-74
2023/06/17 03:46:11;;;;;;;8.27;3.90;;;;;;;20.79;47.13;101006.81;10279527;28;20051;-74
2023/06/17 03:51:16;;;;;;;6.72;4.20;;;;;;;21.35;46.15;101013.72;10278655;28;20066;-74
2023/06/17 03:56:19;;;;;;;10.75;4.93;;;;;;;21.10;46.95;101014.75;10280481;29;20047;-74
2023/06/17 04:01:21;;;;;;;8.18;3.80;;;;;;;21.57;45.63;101006.09;10278768;29;20418;-74
2023/06/17 04:06:23;;;;;;;10.48;4.32;;;;;;;22.16;44.42;101016.84;10280302;29;20418;-75
2023/06/17 04:11:30;;;;;;;7.95;4.13;;;;;;;22.48;42.81;101013.09;10301872;28;20039;-74
2023/06/17 04:16:35;;;;;;;8.45;4.05;;;;;;;22.58;43.47;101010.97;10289207;28;20054;-75
2023/06/17 04:21:37;;;;;;;7.50;4.25;;;;;;;22.81;42.23;101017.66;10289153;28;20051;-75
2023/06/17 04:26:40;;;;;;;9.10;3.97;;;;;;;23.01;41.67;101016.69;10283759;29;20050;-74
2023/06/17 04:31:46;;;;;;;7.95;4.50;;;;;;;23.56;41.72;101026.19;10272008;29;20051;-74
2023/06/17 04:36:49;;;;;;;6.82;4.40;;;;;;;23.57;41.47;101025.03;10286953;29;20046;-74
2023/06/17 04:41:51;;;;;;;6.13;3.92;;;;;;;23.32;41.14;101031.94;10286539;29;20062;-75
2023/06/17 04:46:54;;;;;;;10.35;4.22;;;;;;;23.32;41.95;101024.34;10284335;29;20039;-75
2023/06/17 04:51:56;;;;;;;7.28;3.92;;;;;;;23.46;41.75;101026.72;10285681;29;20043;-74
2023/06/17 04:56:59;;;;;;;8.10;4.43;;;;;;;23.39;41.95;101030.13;10286027;29;20051;-74
2023/06/17 05:02:04;;;;;;;6.80;4.05;;;;;;;23.35;41.45;101028.41;10286924;29;20137;-75
2023/06/17 05:07:06;;;;;;;9.55;3.80;;;;;;;24.01;41.08;101024.97;10271670;29;20043;-75
2023/06/17 05:12:11;;;;;;;10.68;4.43;;;;;;;24.91;39.03;101032.28;10300716;28;20055;-74
2023/06/17 05:17:13;;;;;;;8.52;3.90;;;;;;;24.94;39.33;101025.91;10280321;29;20047;-74
2023/06/17 05:22:15;;;;;;;10.77;4.38;;;;;;;24.94;39.39;101031.53;10284605;28;20426;-75
2023/06/17 05:27:18;;;;;;;7.50;4.28;;;;;;;25.31;39.66;101030.28;10285674;29;20046;-75
2023/06/17 05:32:22;;;;;;;6.47;3.50;;;;;;;25.31;38.97;101039.53;10282388;29;20058;-75
2023/06/17 05:37:25;;;;;;;5.90;3.42;;;;;;;26.10;37.72;101030.53;10268871;29;20051;-75
2023/06/17 05:42:28;;;;;;;6.07;3.85;;;;;;;26.80;37.05;101032.78;10269109;29;20043;-75
2023/06/17 05:47:31;;;;;;;7.55;4.57;;;;;;;26.23;38.52;101034.75;10284126;29;20074;-75
2023/06/17 05:52:33;;;;;;;9.60;4.40;;;;;;;26.35;37.30;101042.19;10276839;29;20684;-76
2023/06/17 05:57:35;;;;;;;6.88;4.03;;;;;;;25.52;38.68;101033.53;10270369;29;20043;-75
2023/06/17 06:02:38;;;;;;;8.65;4.47;;;;;;;25.78;39.15;101041.22;10267036;29;20055;-75
2023/06/17 06:07:41;;;;;;;12.80;4.40;;;;;;;26.26;38.60;101036.00;10262899;29;20422;-75
2023/06/17 06:12:43;;;;;;;7.22;5.05;;;;;;;26.27;38.11;101046.06;10274925;29;20054;-75
2023/06/17 06:17:45;;;;;;;10.60;4.13;;;;;;;26.36;37.73;101036.19;10266133;29;20051;-75
2023/06/17 06:22:48;;;;;;;9.18;4.13;;;;;;;26.89;37.12;101038.94;10257142;29;20047;-75
2023/06/17 06:27:51;;;;;;;6.93;4.00;;;;;;;26.94;37.90;101040.63;10275570;29;20047;-76
2023/06/17 06:32:55;;;;;;;8.88;3.75;;;;;;;27.15;38.07;101046.53;10275207;29;20047;-75
2023/06/17 06:37:59;;;;;;;7.68;3.97;;;;;;;27.63;36.44;101053.16;10277896;28;20047;-75
2023/06/17 06:43:02;;;;;;;7.57;4.25;;;;;;;28.37;35.69;101055.00;10262452;29;20050;-75
2023/06/17 06:48:14;;;;;;;5.93;4.13;;;;;;;28.23;35.08;101046.41;10275759;29;20419;-76
2023/06/17 06:53:19;;;;;;;6.07;3.97;;;;;;;28.66;34.97;101050.38;10248934;29;20040;-73
2023/06/17 06:58:21;;;;;;;6.38;4.10;;;;;;;26.90;36.95;101063.13;10257704;29;20047;-76
2023/06/17 07:03:23;;;;;;;8.68;4.25;;;;;;;27.34;35.80;101054.81;10256638;29;20434;-76
2023/06/17 07:08:26;;;;;;;8.07;3.72;;;;;;;26.73;36.76;101063.69;10232298;29;20055;-75
2023/06/17 07:13:29;;;;;;;6.13;4.15;;;;;;;27.40;36.30;101057.28;10276405;29;20046;-75
2023/06/17 07:18:32;;;;;;;6.82;4.22;;;;;;;27.90;34.62;101065.06;10264686;28;20055;-75
2023/06/17 07:23:34;;;;;;;7.03;3.35;;;;;;;27.94;35.14;101070.75;10265187;29;20422;-75
2023/06/17 07:28:36;;;;;;;9.32;3.72;;;;;;;29.02;33.62;101065.50;10242192;29;20418;-75
2023/06/17 07:33:42;;;;;;;6.88;3.63;;;;;;;28.96;33.20;101064.25;10273676;29;20046;-75
2023/06/17 07:38:45;;;;;;;6.55;3.70;;;;;;;28.40;33.90;101054.22;10281251;29;20043;-75
2023/06/17 07:43:47;;;;;;;5.97;3.85;;;;;;;29.19;32.79;101077.28;10267781;29;20050;-75
2023/06/17 07:48:49;;;;;;;6.88;3.53;;;;;;;29.39;31.46;101081.38;10288759;28;20054;-75
2023/06/17 07:53:51;;;;;;;7.78;3.88;;;;;;;29.61;32.10;101068.13;10280930;29;20062;-75
2023/06/17 07:58:54;;;;;;;8.00;3.85;;;;;;;28.28;33.15;101074.28;10279695;28;20343;-75
2023/06/17 08:03:56;;;;;;;8.57;4.53;;;;;;;28.20;33.53;101072.59;10277418;28;20418;-75
2023/06/17 08:08:58;;;;;;;13.65;4.47;;;;;;;29.24;30.83;101077.69;10274111;29;20043;-76
2023/06/17 08:14:00;;;;;;;5.97;3.70;;;;;;;28.49;31.46;101079.28;10263076;28;20040;-76
2023/06/17 08:19:02;;;;;;;8.18;4.13;;;;;;;28.62;32.16;101071.28;10265398;29;20047;-75
2023/06/17 08:24:26;;;;;;;8.00;3.95;;;;;;;28.50;32.34;101073.25;10261004;29;20051;-75
2023/06/17 08:29:28;;;;;;;5.70;3.25;;;;;;;27.91;33.29;101077.16;10266552;28;20051;-75
2023/06/17 08:34:31;;;;;;;5.80;3.50;;;;;;;29.24;31.90;101076.88;10269578;29;20050;-75
2023/06/17 08:39:39;;;;;;;7.65;4.88;;;;;;;29.15;30.75;101090.56;10280329;28;20043;-75
2023/06/17 08:44:43;;;;;;;8.13;4.35;;;;;;;29.81;28.97;101080.69;10277406;28;20051;-76
2023/06/17 08:49:45;;;;;;;6.50;3.90;;;;;;;29.87;29.61;101078.28;10278396;29;20040;-76
2023/06/17 08:54:48;;;;;;;5.40;3.10;;;;;;;28.85;31.97;101088.00;10275851;29;20446;-76
2023/06/17 08:59:50;;;;;;;6.30;3.50;;;;;;;29.60;28.84;101081.47;10270695;28;20054;-75
2023/06/17 09:04:54;;;;;;;5.70;3.10;;;;;;;29.71;30.96;101085.13;10288485;29;20509;-74
2023/06/17 09:10:03;;;;;;;8.48;3.33;;;;;;;30.17;30.00;101080.75;10279813;29;20046;-73
2023/06/17 09:15:07;;;;;;;5.45;3.90;;;;;;;29.43;29.58;101083.00;10272861;29;20051;-74
2023/06/17 09:20:14;;;;;;;9.63;3.58;;;;;;;29.17;31.58;101085.34;10280454;28;20074;-74
2023/06/17 09:25:17;;;;;;;;;;;;;;;28.92;32.69;101083.19;10280321;29;20069;-77
2023/06/17 09:30:23;;;;;;;6.95;3.30;;;;;;;27.45;33.42;101085.94;10288959;28;19938;-76
2023/06/17 09:35:25;;;;;;;4.85;3.00;;;;;;;26.64;33.54;101080.84;10282228;28;20641;-77
2023/06/17 09:40:28;;;;;;;7.30;3.35;;;;;;;26.14;34.71;101080.03;10281266;28;20059;-78
2023/06/17 09:45:31;;;;;;;5.72;3.22;;;;;;;25.64;36.31;101077.47;10282681;29;20422;-77
2023/06/17 09:50:36;;;;;;;6.70;3.72;;;;;;;25.09;35.24;101088.03;10282002;29;20040;-77
2023/06/17 09:55:39;;;;;;;6.60;3.67;;;;;;;24.75;39.60;101084.84;10271099;29;20043;-78
2023/06/17 10:00:45;;;;;;;8.52;3.85;;;;;;;24.77;39.36;101060.03;10281159;28;20606;-76
2023/06/17 10:05:54;;;;;;;5.27;3.57;;;;;;;24.76;39.95;101082.84;10281987;28;20047;-75
2023/06/17 10:10:59;;;;;;;7.25;3.75;;;;;;;24.66;40.04;101070.22;10280472;28;20055;-77
2023/06/17 10:16:03;;;;;;;6.57;3.72;;;;;;;24.77;40.78;101082.50;10284740;28;20063;-73
2023/06/17 10:21:07;;;;;;;5.28;2.72;;;;;;;24.83;41.46;101064.19;10276801;29;20054;-73
2023/06/17 10:26:13;;;;;;;5.20;2.97;;;;;;;24.83;40.64;101075.44;10280954;29;20442;-77
2023/06/17 10:31:29;;;;;;;5.13;2.03;;;;;;;24.67;41.00;101096.31;10276135;29;20645;-77
2023/06/17 10:36:33;;;;;;;7.90;3.75;;;;;;;24.35;41.36;101088.75;10283529;28;20039;-77
2023/06/17 10:41:42;;;;;;;8.50;3.90;;;;;;;24.25;42.13;101091.25;10278152;29;20039;-79
2023/06/17 10:46:46;;;;;;;8.52;3.75;;;;;;;24.10;42.13;101086.44;10274514;29;20047;-80
2023/06/17 10:51:57;;;;;;;7.20;3.28;;;;;;;24.04;42.73;101092.34;10281094;29;20047;-76
2023/06/17 10:57:04;;;;;;;5.75;3.75;;;;;;;23.87;43.26;101095.50;10278060;28;20058;-77
2023/06/17 11:02:07;;;;;;;5.57;2.50;;;;;;;23.79;43.21;101088.09;10264502;29;20040;-75
2023/06/17 11:07:13;;;;;;;10.13;4.70;;;;;;;23.84;42.83;101090.63;10264918;29;20553;-75
2023/06/17 11:12:16;;;;;;;11.17;4.10;;;;;;;23.98;42.39;101102.22;10282851;28;20043;-75
2023/06/17 11:17:18;;;;;;;4.68;3.05;;;;;;;23.91;41.73;101099.19;10273963;28;20399;-75
2023/06/17 11:22:22;;;;;;;5.72;2.60;;;;;;;23.76;41.53;101102.78;10275644;28;20039;-75
2023/06/17 11:27:24;;;;;;;6.05;3.30;;;;;;;23.60;41.85;101085.94;10278880;29;20055;-74
2023/06/17 11:32:26;;;;;;;6.70;3.83;;;;;;;23.71;42.21;101087.06;10281114;28;20410;-75
2023/06/17 11:37:29;;;;;;;6.82;4.03;;;;;;;23.84;41.03;101095.41;10288615;28;20047;-74
2023/06/17 11:42:31;;;;;;;5.80;2.28;;;;;;;23.65;40.85;101119.34;10271574;28;20043;-75
2023/06/17 11:47:35;;;;;;;4.43;2.63;;;;;;;23.55;41.83;101093.78;10268014;29;20044;-75
2023/06/17 11:52:37;;;;;;;4.13;2.47;;;;;;;23.69;41.63;101109.03;10278629;28;20055;-73
2023/06/17 11:57:42;;;;;;;4.95;3.10;;;;;;;23.60;41.70;101099.97;10273688;29;20435;-74
2023/06/17 12:02:44;;;;;;;5.50;3.17;;;;;;;23.50;41.56;101120.06;10270120;28;20047;-75
2023/06/17 12:07:46;;;;;;;8.27;3.90;;;;;;;23.53;41.04;101112.94;10252096;29;20449;-73
2023/06/17 12:12:48;;;;;;;6.40;3.25;;;;;;;23.56;41.33;101112.22;10274678;28;20051;-80
2023/06/17 12:17:51;;;;;;;4.45;2.70;;;;;;;23.64;42.40;101105.69;10274279;29;20055;-78
2023/06/17 12:22:53;;;;;;;8.95;3.47;;;;;;;23.73;41.26;101107.13;10275494;29;20043;-79
2023/06/17 12:27:55;;;;;;;7.93;3.50;;;;;;;23.67;42.01;101111.38;10271433;29;20047;-80
2023/06/17 12:32:57;;;;;;;4.53;3.22;;;;;;;23.55;41.42;101124.59;10279705;28;20062;-81
2023/06/17 12:37:59;;;;;;;4.72;2.90;;;;;;;23.42;42.47;101107.84;10283858;29;20055;-80
2023/06/17 12:43:02;;;;;;;4.20;1.88;;;;;;;23.39;42.58;101091.75;10282465;29;20043;-80
2023/06/17 12:48:04;;;;;;;6.88;2.42;;;;;;;23.55;42.45;101094.59;10284808;29;20536;-82
2023/06/17 12:53:07;;;;;;;4.53;2.40;;;;;;;23.52;42.65;101086.91;10280466;28;20058;-75
2023/06/17 12:58:10;;;;;;;5.38;2.70;;;;;;;23.50;42.55;101088.44;10274885;29;20051;-80
2023/06/17 13:03:13;;;;;;;6.00;3.00;;;;;;;23.43;42.53;101106.69;10279348;29;20035;-79
2023/06/17 13:08:17;;;;;;;5.65;3.00;;;;;;;23.46;42.75;101086.38;10279079;29;20143;-79
2023/06/17 13:13:19;;;;;;;5.35;2.70;;;;;;;23.63;42.02;101088.06;10283259;29;20043;-77
2023/06/17 13:18:22;;;;;;;6.75;2.28;;;;;;;23.64;41.61;101092.50;10279399;29;20054;-78
2023/06/17 13:23:24;;;;;;;15.07;4.60;;;;;;;23.51;41.77;101101.28;10282140;29;20051;-78
2023/06/17 13:28:26;;;;;;;7.53;3.75;;;;;;;23.32;41.52;101093.56;10266088;29;20051;-74
2023/06/17 13:33:29;;;;;;;4.38;2.33;;;;;;;23.36;41.51;101089.66;10275856;28;20043;-74
2023/06/17 13:38:31;;;;;;;5.50;3.00;;;;;;;23.38;41.74;101106.13;10298189;28;20043;-74
2023/06/17 13:43:33;;;;;;;5.68;3.10;;;;;;;23.15;41.47;101094.66;10284153;28;20064;-72
2023/06/17 13:48:36;;;;;;;6.25;3.10;;;;;;;23.05;40.69;101118.34;10281584;29;20051;-72
2023/06/17 13:53:38;;;;;;;6.97;3.80;;;;;;;22.94;41.42;101088.44;10275071;28;20047;-78
2023/06/17 13:58:40;;;;;;;6.43;2.45;;;;;;;23.01;40.77;101097.84;10276612;28;20054;-75
2023/06/17 14:03:42;;;;;;;6.88;3.90;;;;;;;22.98;41.12;101106.97;10279734;29;20062;-77
2023/06/17 14:08:45;;;;;;;4.40;3.17;;;;;;;22.88;40.71;101087.84;10278454;28;20406;-78
2023/06/17 14:13:47;;;;;;;7.82;3.65;;;;;;;22.80;41.06;101085.97;10279872;28;20549;-74
2023/06/17 14:18:50;;;;;;;5.82;2.85;;;;;;;22.86;41.04;101088.19;10278014;29;20140;-79
2023/06/17 14:24:04;;;;;;;4.43;2.45;;;;;;;22.76;41.77;101090.66;10251654;29;20499;-79
2023/06/17 14:29:09;;;;;;;5.53;3.47;;;;;;;22.75;41.93;101075.84;10272734;28;20039;-79
2023/06/17 14:34:11;;;;;;;11.65;3.25;;;;;;;22.94;41.89;101085.63;10277413;28;20046;-79
2023/06/17 14:39:14;;;;;;;7.40;3.33;;;;;;;23.08;41.30;101081.28;10283144;29;20055;-78
2023/06/17 14:44:16;;;;;;;5.50;3.80;;;;;;;22.99;41.11;101094.59;10278695;29;20040;-78
2023/06/17 14:49:18;;;;;;;6.18;2.03;;;;;;;22.88;41.20;101087.03;10274919;29;20058;-74
2023/06/17 14:54:20;;;;;;;5.82;3.00;;;;;;;22.72;40.55;101100.91;10264820;29;20058;-81
2023/06/17 14:59:23;;;;;;;3.10;1.77;;;;;;;22.63;39.96;101100.22;10280314;28;20067;-74
2023/06/17 15:04:25;;;;;;;5.60;2.22;;;;;;;22.61;39.34;101078.22;10283319;29;20042;-80
2023/06/17 15:09:28;;;;;;;7.30;2.80;;;;;;;22.51;39.07;101085.09;10270227;29;20051;-80
2023/06/17 15:14:36;;;;;;;3.95;2.45;;;;;;;22.50;39.20;101110.59;10264189;28;20573;-80
2023/06/17 15:19:39;;;;;;;6.20;2.85;;;;;;;22.41;38.70;101096.75;10265603;29;20062;-82
2023/06/17 15:24:41;;;;;;;5.65;3.08;;;;;;;22.33;39.00;101099.66;10280718;29;20044;-79
2023/06/17 15:29:43;;;;;;;5.10;3.15;;;;;;;22.38;39.61;101096.63;10269721;28;20054;-77
2023/06/17 15:34:45;;;;;;;4.80;3.08;;;;;;;22.44;39.42;101101.66;10272645;28;20062;-82
2023/06/17 15:39:48;;;;;;;7.57;2.88;;;;;;;22.28;39.18;101100.72;10280229;29;20051;-77
2023/06/17 15:44:50;;;;;;;6.63;3.40;;;;;;;22.23;39.56;101112.13;10295698;28;20411;-81
2023/06/17 15:49:52;;;;;;;5.60;3.30;;;;;;;22.09;40.31;101106.88;10277300;29;20039;-75
2023/06/17 15:55:00;;;;;;;5.55;2.97;;;;;;;22.06;40.51;101102.00;10282301;29;20561;-78
2023/06/17 16:00:03;;;;;;;8.05;3.63;;;;;;;22.11;40.77;101092.56;10294837;28;20502;-73
2023/06/17 16:05:14;;;;;;;8.82;3.28;;;;;;;22.05;40.35;101105.94;10281431;28;20043;-81
2023/06/17 16:10:16;;;;;;;4.25;2.15;;;;;;;22.00;41.11;101114.50;10267249;28;20039;-81
2023/06/17 16:15:19;;;;;;;5.93;2.17;;;;;;;21.96;40.77;101116.38;10287189;29;20419;-82
2023/06/17 16:20:21;;;;;;;6.05;2.92;;;;;;;21.84;40.81;101105.16;10290043;29;20506;-82
2023/06/17 16:25:23;;;;;;;8.82;3.85;;;;;;;21.82;40.99;101108.31;10289858;29;20045;-81
2023/06/17 16:30:25;;;;;;;6.80;3.20;;;;;;;21.73;41.20;101121.56;10289081;28;20074;-81
2023/06/17 16:35:27;;;;;;;6.40;3.65;;;;;;;21.81;41.08;101128.22;10277991;29;20035;-75
2023/06/17 16:40:30;;;;;;;5.25;2.53;;;;;;;21.70;40.98;101127.84;10284653;28;20054;-75
2023/06/17 16:45:32;;;;;;;5.45;2.83;;;;;;;21.57;41.14;101118.59;10269300;29;20048;-81
2023/06/17 16:50:34;;;;;;;4.43;2.85;;;;;;;21.55;41.30;101132.09;10275827;29;20055;-79
2023/06/17 16:55:36;;;;;;;4.15;2.70;;;;;;;21.47;41.71;101132.16;10288717;29;20418;-82
2023/06/17 17:00:39;;;;;;;7.10;2.88;;;;;;;21.32;42.26;101128.84;10286827;29;20047;-82
2023/06/17 17:05:41;;;;;;;4.88;1.88;;;;;;;21.32;42.50;101134.44;10301770;28;20043;-79
2023/06/17 17:10:43;;;;;;;5.55;3.17;;;;;;;21.33;42.77;101133.25;10286540;28;20062;-75
2023/06/17 17:15:46;;;;;;;6.05;3.10;;;;;;;21.25;42.97;101136.16;10263327;28;20059;-75
2023/06/17 17:20:48;;;;;;;4.82;2.70;;;;;;;21.05;43.36;101146.13;10274963;28;20051;-76
2023/06/17 17:25:50;;;;;;;8.55;2.83;;;;;;;20.95;43.35;101140.94;10285223;29;20044;-78
2023/06/17 17:30:52;;;;;;;4.57;2.70;;;;;;;20.98;43.67;101141.06;10285066;29;20054;-78
2023/06/17 17:35:55;;;;;;;6.72;2.08;;;;;;;20.81;43.85;101145.94;10285614;29;20055;-78
2023/06/17 17:40:57;;;;;;;4.32;2.15;;;;;;;20.71;44.24;101148.00;10269441;29;20605;-78
2023/06/17 17:46:01;;;;;;;0.68;0.65;;;;;;;20.61;44.29;101167.88;10283199;29;20126;-77
2023/06/17 17:51:03;;;;;;;4.43;2.50;;;;;;;20.50;44.56;101158.28;10282812;29;20043;-79
2023/06/17 17:56:05;;;;;;;6.85;3.33;;;;;;;20.34;44.90;101148.81;10284498;29;20062;-78
2023/06/17 18:01:07;;;;;;;1.77;1.50;;;;;;;20.28;45.24;101162.09;10283850;29;20059;-77
2023/06/17 18:06:10;;;;;;;4.57;2.35;;;;;;;20.22;45.45;101154.25;10271188;29;20035;-79
2023/06/17 18:11:13;;;;;;;3.83;1.77;;;;;;;20.20;45.73;101156.56;10283059;29;20054;-77
2023/06/17 18:16:15;;;;;;;5.45;2.50;;;;;;;20.04;46.06;101157.09;10282842;28;20047;-80
2023/06/17 18:21:17;;;;;;;6.00;3.10;;;;;;;20.02;46.27;101170.56;10285133;28;20061;-80
2023/06/17 18:26:20;;;;;;;6.70;3.22;;;;;;;19.98;46.47;101158.44;10282654;28;20441;-75
2023/06/17 18:31:22;;;;;;;4.78;2.63;;;;;;;19.96;47.03;101183.03;10283831;28;20422;-74
2023/06/17 18:36:24;;;;;;;4.32;2.97;;;;;;;19.77;47.51;101185.34;10282528;29;20050;-75
2023/06/17 18:41:27;;;;;;;5.47;3.15;;;;;;;19.69;47.68;101198.13;10282294;29;20050;-74
2023/06/17 18:46:29;;;;;;;4.70;3.00;;;;;;;19.61;48.47;101214.81;10272460;29;20418;-81
2023/06/17 18:51:31;;;;;;;3.25;2.10;;;;;;;19.48;48.95;101200.75;10282986;28;20047;-82
2023/06/17 18:56:33;;;;;;;5.18;2.35;;;;;;;19.35;49.40;101214.81;10283471;29;20042;-80
2023/06/17 19:01:35;;;;;;;4.28;2.45;;;;;;;19.17;49.87;101205.63;10291862;28;20040;-82
2023/06/17 19:06:37;;;;;;;4.45;2.50;;;;;;;19.16;50.18;101210.38;10297450;28;20047;-81
2023/06/17 19:11:40;;;;;;;5.35;2.70;;;;;;;19.06;50.69;101205.09;10282943;29;20047;-79
2023/06/17 19:16:42;;;;;;;4.55;2.50;;;;;;;18.93;51.09;101208.88;10282270;29;20039;-79
2023/06/17 19:21:44;;;;;;;7.43;2.70;;;;;;;18.86;51.61;101223.22;10256102;28;20056;-78
2023/06/17 19:26:46;;;;;;;6.32;2.70;;;;;;;18.76;51.89;101223.53;10253178;29;20042;-81
2023/06/17 19:31:48;;;;;;;9.85;2.45;;;;;;;18.62;52.61;101217.22;10276282;29;20062;-81
2023/06/17 19:36:52;;;;;;;4.82;2.65;;;;;;;18.60;52.75;101225.06;10280874;29;20039;-81
2023/06/17 19:41:54;;;;;;;10.77;3.03;;;;;;;18.67;52.86;101237.38;10278179;28;20054;-80
2023/06/17 19:46:56;;;;;;;4.22;2.35;;;;;;;18.51;53.63;101241.69;10258625;29;20043;-81
2023/06/17 19:51:58;;;;;;;5.05;2.40;;;;;;;18.50;53.42;101255.91;10272017;29;20036;-82
2023/06/17 19:57:01;;;;;;;5.28;2.47;;;;;;;18.43;53.86;101255.56;10280476;29;20517;-80
2023/06/17 20:02:03;;;;;;;7.18;2.83;;;;;;;18.38;53.72;101246.22;10281789;29;20054;-83
2023/06/17 20:07:05;;;;;;;7.95;2.80;;;;;;;18.36;54.48;101256.81;10281472;29;20509;-83
2023/06/17 20:12:08;;;;;;;6.50;3.08;;;;;;;18.49;54.23;101262.63;10279821;28;20055;-82
2023/06/17 20:17:10;;;;;;;6.82;2.60;;;;;;;18.32;54.93;101264.16;10280283;28;20391;-84
2023/06/17 20:22:13;;;;;;;5.68;2.22;;;;;;;18.16;55.52;101282.38;10270805;29;20541;-80
2023/06/17 20:27:15;;;;;;;6.15;3.13;;;;;;;18.01;56.38;101271.63;10280412;29;20032;-79
2023/06/17 20:32:18;;;;;;;3.38;1.52;;;;;;;17.99;56.57;101271.13;10277099;29;20051;-79
2023/06/17 20:37:21;;;;;;;4.60;2.67;;;;;;;18.00;56.95;101283.88;10279359;28;20055;-78
2023/06/17 20:42:23;;;;;;;7.07;3.13;;;;;;;18.09;57.02;101287.56;10276219;29;20063;-77
2023/06/17 20:47:26;;;;;;;6.20;2.60;;;;;;;17.96;57.70;101282.88;10273211;28;20435;-78
2023/06/17 20:52:28;;;;;;;8.02;3.00;;;;;;;17.97;57.42;101285.34;10256033;29;20848;-77
2023/06/17 20:57:31;;;;;;;6.45;2.63;;;;;;;17.98;58.59;101294.47;10274459;29;20050;-77
2023/06/17 21:02:33;;;;;;;7.35;2.65;;;;;;;17.82;59.98;101294.03;10277885;29;20061;-84
2023/06/17 21:07:35;;;;;;;5.75;2.65;;;;;;;17.66;60.82;101301.84;10288513;29;20046;-83
2023/06/17 21:12:38;;;;;;;7.78;2.55;;;;;;;17.56;61.26;101304.88;10287843;29;20054;-83
2023/06/17 21:17:40;;;;;;;6.15;2.17;;;;;;;17.45;62.09;101301.50;10287645;29;20046;-83
2023/06/17 21:22:42;;;;;;;4.43;2.53;;;;;;;17.31;62.41;101316.53;10287790;29;20426;-74
2023/06/17 21:27:45;;;;;;;7.53;2.70;;;;;;;17.23;62.72;101320.03;10287668;29;20043;-79
2023/06/17 21:32:47;;;;;;;3.33;1.83;;;;;;;17.15;63.38;101314.06;10287443;29;20043;-80
2023/06/17 21:37:49;;;;;;;5.55;2.40;;;;;;;17.16;62.37;101326.78;10283713;29;20521;-77
2023/06/17 21:42:51;;;;;;;5.72;2.50;;;;;;;17.14;62.64;101325.47;10285855;29;20647;-85
2023/06/17 21:47:54;;;;;;;3.88;2.20;;;;;;;17.08;62.45;101326.72;10286896;29;20059;-77
2023/06/17 21:52:56;;;;;;;6.32;2.95;;;;;;;16.98;62.43;101330.50;10286829;29;20069;-79
2023/06/17 21:57:58;;;;;;;2.97;1.50;;;;;;;16.91;62.70;101335.63;10286395;29;20051;-81
2023/06/17 22:03:00;;;;;;;5.82;2.50;;;;;;;16.75;62.98;101348.13;10286488;29;20058;-77
2023/06/17 22:08:03;;;;;;;5.53;2.20;;;;;;;16.56;63.86;101349.00;10285743;28;20391;-79
2023/06/17 22:13:05;;;;;;;4.05;2.22;;;;;;;16.38;63.81;101360.94;10285340;29;20062;-78
2023/06/17 22:18:07;;;;;;;3.63;2.17;;;;;;;16.34;63.42;101354.38;10281682;29;20039;-80
2023/06/17 22:23:09;;;;;;;2.33;1.25;;;;;;;16.31;62.71;101360.50;10278948;29;20057;-78
2023/06/17 22:28:11;;;;;;;3.55;1.95;;;;;;;16.19;62.74;101379.53;10274305;28;20051;-74
2023/06/17 22:33:13;;;;;;;2.67;1.00;;;;;;;16.12;62.49;101376.31;10278213;29;20039;-74
2023/06/17 22:38:16;;;;;;;2.83;1.60;;;;;;;16.18;62.13;101366.81;10285051;28;20277;-74
2023/06/17 22:43:19;;;;;;;1.77;1.38;;;;;;;16.42;60.71;101381.38;10275144;29;20051;-77
2023/06/17 22:48:21;;;;;;;5.53;1.88;;;;;;;16.10;60.55;101393.22;10273124;29;20098;-81
2023/06/17 22:53:23;;;;;;;2.88;1.60;;;;;;;16.00;60.27;101393.41;10278585;29;20502;-81
2023/06/17 22:58:25;;;;;;;3.95;1.27;;;;;;;15.93;58.73;101388.22;10277632;28;20051;-81
2023/06/17 23:03:28;;;;;;;2.42;1.40;;;;;;;15.71;58.58;101407.34;10277949;28;20062;-82
2023/06/17 23:08:30;;;;;;;1.13;0.90;;;;;;;15.70;58.28;101414.00;10269947;29;20411;-80
2023/06/17 23:13:32;;;;;;;3.95;1.55;;;;;;;15.80;57.19;101397.28;10268070;29;20035;-77